Time;durP1;ratioP1;P1;durP2;ratioP2;P2;SDS_P1;SDS_P2;PMS_P1;PMS_P2;Temp;Humidity;BMP_temperature;BMP_pressure;BME280_temperature;BME280_humidity;BME280_pressure;Samples;Min_cycle;Max_cycle;Signal;HPM_P1;HPM_P2
2023/01/31 00:01:08;;;;;;;17.10;2.90;;;6.50;99.90;;;;;;4907722;29;20378;-79
2023/01/31 00:03:35;;;;;;;18.90;3.70;;;6.40;99.90;;;;;;4907102;29;20309;-79
2023/01/31 00:06:17;;;;;;;20.60;3.37;;;6.50;99.90;;;;;;4907759;29;20206;-80
2023/01/31 00:08:47;;;;;;;16.60;3.27;;;6.50;99.90;;;;;;4907603;29;20191;-80
2023/01/31 00:11:15;;;;;;;15.90;3.43;;;6.50;99.90;;;;;;4906688;29;20320;-79
2023/01/31 00:13:42;;;;;;;10.40;2.83;;;6.50;99.90;;;;;;4906718;29;20195;-80
2023/01/31 00:16:11;;;;;;;14.80;4.53;;;6.50;99.90;;;;;;4906378;29;20195;-79
2023/01/31 00:18:38;;;;;;;24.70;3.50;;;6.50;99.90;;;;;;4906566;29;20317;-81
2023/01/31 00:21:08;;;;;;;12.57;3.40;;;6.50;99.90;;;;;;4907362;29;20696;-80
2023/01/31 00:23:35;;;;;;;15.43;3.03;;;6.50;99.90;;;;;;4906726;29;20195;-80
2023/01/31 00:26:12;;;;;;;14.03;3.50;;;6.50;99.90;;;;;;4907437;29;20972;-80
2023/01/31 00:28:39;;;;;;;14.97;4.00;;;6.50;99.90;;;;;;4906804;29;20309;-79
2023/01/31 00:31:07;;;;;;;14.23;3.90;;;6.50;99.90;;;;;;4906485;29;20690;-79
2023/01/31 00:33:35;;;;;;;12.33;3.63;;;6.40;99.90;;;;;;4906703;29;20225;-80
2023/01/31 00:36:04;;;;;;;19.67;5.40;;;6.40;99.90;;;;;;4906887;29;20219;-79
2023/01/31 00:38:31;;;;;;;15.73;3.93;;;6.40;99.90;;;;;;4905874;29;20198;-81
2023/01/31 00:40:58;;;;;;;14.37;4.23;;;6.40;99.90;;;;;;4907435;29;20226;-80
2023/01/31 00:43:27;;;;;;;19.73;4.43;;;6.40;99.90;;;;;;4906955;29;20230;-79
2023/01/31 00:45:54;;;;;;;24.70;4.97;;;6.50;99.90;;;;;;4906183;29;20287;-79
2023/01/31 00:48:21;;;;;;;20.50;4.83;;;6.40;99.90;;;;;;4906496;29;20221;-79
2023/01/31 00:50:47;;;;;;;21.97;5.50;;;6.40;99.90;;;;;;4906867;29;20213;-79
2023/01/31 00:53:16;;;;;;;16.53;5.00;;;6.50;99.90;;;;;;4906740;29;20206;-80
2023/01/31 00:55:43;;;;;;;18.97;4.53;;;6.40;99.90;;;;;;4906629;29;20250;-80
2023/01/31 00:58:10;;;;;;;29.97;5.83;;;6.40;99.90;;;;;;4907253;29;20234;-78
2023/01/31 01:00:38;;;;;;;17.30;4.30;;;6.40;99.90;;;;;;4907224;29;20226;-78
2023/01/31 01:03:05;;;;;;;16.30;5.07;;;6.40;99.90;;;;;;4906908;29;20253;-79
2023/01/31 01:05:32;;;;;;;18.20;5.80;;;6.40;99.90;;;;;;4906594;29;20258;-79
2023/01/31 01:07:59;;;;;;;21.30;5.67;;;6.40;99.90;;;;;;4907799;29;20217;-79
2023/01/31 01:10:26;;;;;;;28.23;5.93;;;6.40;99.90;;;;;;4907458;29;20309;-80
2023/01/31 01:12:53;;;;;;;22.07;5.27;;;6.50;99.90;;;;;;4907113;29;20218;-79
2023/01/31 01:15:20;;;;;;;20.57;5.30;;;6.60;99.90;;;;;;4907434;29;20203;-79
2023/01/31 01:17:49;;;;;;;28.80;5.40;;;6.70;99.90;;;;;;4906927;29;20203;-80
2023/01/31 01:20:17;;;;;;;17.57;5.23;;;6.80;99.90;;;;;;4925220;29;20710;-78
2023/01/31 01:22:44;;;;;;;18.93;5.47;;;6.80;99.90;;;;;;4929708;29;20209;-81
2023/01/31 01:25:11;;;;;;;21.60;6.27;;;6.90;99.90;;;;;;4927012;29;20296;-79
2023/01/31 01:27:38;;;;;;;24.53;5.57;;;6.90;99.90;;;;;;4910230;29;20297;-80
2023/01/31 01:30:06;;;;;;;17.30;4.67;;;6.90;99.90;;;;;;4910946;29;20215;-80
2023/01/31 01:32:33;;;;;;;20.53;4.20;;;6.90;99.90;;;;;;4910872;29;20611;-80
2023/01/31 01:35:03;;;;;;;22.30;4.53;;;6.90;99.90;;;;;;4924773;29;20341;-80
2023/01/31 01:37:30;;;;;;;24.13;5.53;;;7.00;99.90;;;;;;4929090;29;20262;-80
2023/01/31 01:39:57;;;;;;;29.87;6.00;;;7.00;99.90;;;;;;4928786;29;20204;-80
2023/01/31 01:42:25;;;;;;;22.60;5.20;;;7.10;99.90;;;;;;4920517;29;20219;-80
2023/01/31 01:44:54;;;;;;;21.93;5.80;;;7.10;99.90;;;;;;4909711;29;20214;-81
2023/01/31 01:47:29;;;;;;;18.87;5.50;;;7.10;99.90;;;;;;4909186;29;20599;-80
2023/01/31 01:50:04;;;;;;;23.63;5.00;;;7.10;99.90;;;;;;4910050;29;20186;-78
2023/01/31 01:52:36;;;;;;;20.77;5.20;;;7.00;99.90;;;;;;4909867;29;20212;-80
2023/01/31 01:55:12;;;;;;;19.43;5.17;;;7.10;99.90;;;;;;4909482;29;20203;-80
2023/01/31 01:57:44;;;;;;;23.63;5.73;;;7.10;99.90;;;;;;4909262;29;20328;-80
2023/01/31 02:00:15;;;;;;;29.00;4.70;;;7.20;99.90;;;;;;4909491;29;20317;-78
2023/01/31 02:02:43;;;;;;;23.57;5.83;;;7.10;99.90;;;;;;4908520;29;20226;-81
2023/01/31 02:05:14;;;;;;;25.57;5.73;;;7.20;99.90;;;;;;4909462;29;20269;-80
2023/01/31 02:07:42;;;;;;;26.57;5.50;;;7.20;99.90;;;;;;4909533;29;20229;-80
2023/01/31 02:10:15;;;;;;;29.07;5.97;;;7.30;99.90;;;;;;4909047;29;20583;-79
2023/01/31 02:12:42;;;;;;;19.30;5.00;;;7.30;99.90;;;;;;4909420;29;20198;-79
2023/01/31 02:15:10;;;;;;;25.23;5.20;;;7.30;99.90;;;;;;4909301;29;20214;-79
2023/01/31 02:17:37;;;;;;;22.33;5.63;;;7.20;99.90;;;;;;4908578;29;20293;-80
2023/01/31 02:20:27;;;;;;;20.73;4.77;;;7.30;99.90;;;;;;4909233;29;20216;-79
2023/01/31 02:23:13;;;;;;;28.03;5.50;;;7.30;99.90;;;;;;4908726;29;20207;-81
2023/01/31 02:26:02;;;;;;;22.00;5.30;;;7.30;99.90;;;;;;4925582;29;20208;-79
2023/01/31 02:28:55;;;;;;;22.33;6.03;;;7.30;99.90;;;;;;4919728;29;20314;-79
2023/01/31 02:31:59;;;;;;;22.53;5.33;;;7.30;99.90;;;;;;4898127;29;20297;-80
2023/01/31 02:34:36;;;;;;;19.80;5.43;;;7.40;99.90;;;;;;4908928;29;20289;-79
2023/01/31 02:37:16;;;;;;;21.43;6.17;;;7.40;99.90;;;;;;4907857;29;20423;-79
2023/01/31 02:39:52;;;;;;;22.07;5.10;;;7.40;99.90;;;;;;4908839;29;20207;-79
2023/01/31 02:42:26;;;;;;;19.67;4.97;;;7.50;99.90;;;;;;4908924;29;20274;-80
2023/01/31 02:45:01;;;;;;;22.30;5.27;;;7.50;99.90;;;;;;4909028;29;20270;-79
2023/01/31 02:47:45;;;;;;;20.40;6.03;;;7.50;99.90;;;;;;4909390;29;20194;-79
2023/01/31 02:50:20;;;;;;;27.00;7.17;;;7.50;99.90;;;;;;4909127;29;20258;-79
2023/01/31 02:52:52;;;;;;;23.03;6.20;;;7.50;99.90;;;;;;4908689;29;20495;-80
2023/01/31 02:58:16;;;;;;;23.60;6.83;;;7.50;99.90;;;;;;4902749;29;20206;-79
2023/01/31 03:00:45;;;;;;;33.27;7.13;;;7.40;99.90;;;;;;4909257;29;20232;-79
2023/01/31 03:03:19;;;;;;;24.20;6.03;;;7.40;99.90;;;;;;4908847;29;20262;-79
2023/01/31 03:06:25;;;;;;;22.43;6.40;;;7.30;99.90;;;;;;4907880;29;20247;-79
2023/01/31 03:08:58;;;;;;;27.13;7.23;;;7.30;99.90;;;;;;4908768;29;20975;-78
2023/01/31 03:11:30;;;;;;;22.80;5.37;;;7.20;99.90;;;;;;4908333;29;20202;-82
2023/01/31 03:14:09;;;;;;;26.50;6.63;;;7.20;99.90;;;;;;4908194;29;20301;-80
2023/01/31 03:19:33;;;;;;;27.30;6.73;;;7.10;99.90;;;;;;4907798;29;20206;-80
2023/01/31 03:22:05;;;;;;;31.53;8.30;;;7.10;99.90;;;;;;4908300;29;20245;-78
2023/01/31 03:24:35;;;;;;;23.47;6.87;;;7.10;99.90;;;;;;4908325;29;20341;-79
2023/01/31 03:27:03;;;;;;;30.57;6.20;;;7.00;99.90;;;;;;4908316;29;20214;-79
2023/01/31 03:29:35;;;;;;;22.33;6.77;;;7.10;99.90;;;;;;4907866;29;20328;-79
2023/01/31 03:32:07;;;;;;;30.73;6.53;;;7.10;99.90;;;;;;4908607;29;20205;-79
2023/01/31 03:34:35;;;;;;;28.03;6.53;;;7.10;99.90;;;;;;4907806;29;20254;-78
2023/01/31 03:37:08;;;;;;;25.67;6.30;;;7.00;99.90;;;;;;4908607;29;20688;-79
2023/01/31 03:39:42;;;;;;;25.00;6.63;;;7.10;99.90;;;;;;4908082;29;20203;-79
2023/01/31 03:42:16;;;;;;;28.00;7.47;;;7.10;99.90;;;;;;4907656;29;20222;-79
2023/01/31 03:44:52;;;;;;;26.40;7.43;;;7.10;99.90;;;;;;4907478;29;20205;-80
2023/01/31 03:47:24;;;;;;;27.33;8.10;;;7.10;99.90;;;;;;4906620;29;20218;-79
2023/01/31 03:49:54;;;;;;;25.10;7.37;;;7.10;99.90;;;;;;4908137;29;20270;-79
2023/01/31 03:52:29;;;;;;;35.90;9.77;;;7.20;99.90;;;;;;4908354;29;20947;-79
2023/01/31 03:55:03;;;;;;;35.40;8.17;;;7.10;99.90;;;;;;4916925;29;20216;-79
2023/01/31 03:57:34;;;;;;;23.50;7.33;;;7.10;99.90;;;;;;4926377;29;20249;-79
2023/01/31 04:00:05;;;;;;;33.03;8.60;;;7.10;99.90;;;;;;4926776;29;20241;-79
2023/01/31 04:02:35;;;;;;;28.93;7.53;;;7.10;99.90;;;;;;4909741;29;20722;-79
2023/01/31 04:05:07;;;;;;;30.43;7.63;;;7.10;99.90;;;;;;4908080;29;20293;-78
2023/01/31 04:07:35;;;;;;;31.73;7.57;;;7.10;99.90;;;;;;4907563;29;20206;-80
2023/01/31 04:10:08;;;;;;;25.43;5.67;;;7.20;99.90;;;;;;4907489;29;20213;-79
2023/01/31 04:12:36;;;;;;;24.37;6.17;;;7.20;99.90;;;;;;4907603;29;20760;-80
2023/01/31 04:15:04;;;;;;;23.53;6.87;;;7.20;99.90;;;;;;4907443;29;20206;-81
2023/01/31 04:17:32;;;;;;;34.20;6.03;;;7.30;99.90;;;;;;4918965;29;20218;-80
2023/01/31 04:19:58;;;;;;;26.37;6.63;;;7.30;99.90;;;;;;4927278;29;20205;-81
2023/01/31 04:22:26;;;;;;;22.10;6.37;;;7.30;99.90;;;;;;4926216;29;20226;-80
2023/01/31 04:24:53;;;;;;;26.43;6.50;;;7.30;99.90;;;;;;4911933;29;20583;-81
2023/01/31 04:27:22;;;;;;;27.17;6.77;;;7.40;99.90;;;;;;4907515;29;20981;-79
2023/01/31 04:29:49;;;;;;;26.90;6.63;;;7.30;99.90;;;;;;4906780;29;20270;-80
2023/01/31 04:32:16;;;;;;;23.40;6.17;;;7.30;99.90;;;;;;4907678;29;20212;-81
2023/01/31 04:34:43;;;;;;;20.70;5.73;;;7.30;99.90;;;;;;4907708;29;20221;-79
2023/01/31 04:37:09;;;;;;;25.90;6.80;;;7.30;99.90;;;;;;4906874;29;20212;-79
2023/01/31 04:39:37;;;;;;;29.73;7.07;;;7.30;99.90;;;;;;4907239;29;20210;-80
2023/01/31 04:42:04;;;;;;;19.60;6.27;;;7.30;99.90;;;;;;4919386;29;20566;-79
2023/01/31 04:44:32;;;;;;;34.97;6.57;;;7.30;99.90;;;;;;4906337;29;20207;-79
2023/01/31 04:46:59;;;;;;;26.00;7.20;;;7.30;99.90;;;;;;4907110;29;20301;-79
2023/01/31 04:49:26;;;;;;;17.73;5.73;;;7.30;99.90;;;;;;4907196;29;20577;-80
2023/01/31 04:51:53;;;;;;;21.80;5.93;;;7.30;99.90;;;;;;4907131;29;20222;-79
2023/01/31 04:54:20;;;;;;;22.00;6.07;;;7.30;99.90;;;;;;4906695;29;20206;-79
2023/01/31 04:56:47;;;;;;;32.00;5.93;;;7.30;99.90;;;;;;4909917;29;20741;-80
2023/01/31 04:59:14;;;;;;;19.77;5.13;;;7.30;99.90;;;;;;4910460;29;20210;-79
2023/01/31 05:01:44;;;;;;;24.33;5.90;;;7.40;99.90;;;;;;4910855;29;20280;-80
2023/01/31 05:04:11;;;;;;;26.10;6.50;;;7.40;99.90;;;;;;4910875;29;20359;-81
2023/01/31 05:06:38;;;;;;;24.93;5.57;;;7.40;99.90;;;;;;4911275;29;20237;-79
2023/01/31 05:09:06;;;;;;;21.40;5.57;;;7.40;99.90;;;;;;4910807;29;20209;-79
2023/01/31 05:11:33;;;;;;;27.50;5.63;;;7.50;99.90;;;;;;4909856;29;20207;-79
2023/01/31 05:14:00;;;;;;;20.97;4.77;;;7.40;99.90;;;;;;4911329;29;20571;-79
2023/01/31 05:16:27;;;;;;;17.37;4.93;;;7.40;99.90;;;;;;4910446;29;20207;-80
2023/01/31 05:18:55;;;;;;;24.20;5.07;;;7.50;99.90;;;;;;4909339;29;20603;-80
2023/01/31 05:21:22;;;;;;;18.00;5.57;;;7.60;99.90;;;;;;4910193;29;20222;-80
2023/01/31 05:23:49;;;;;;;21.57;5.00;;;7.50;99.90;;;;;;4910165;29;20203;-80
2023/01/31 05:26:16;;;;;;;21.63;5.60;;;7.50;99.90;;;;;;4910275;29;20629;-79
2023/01/31 05:28:43;;;;;;;20.77;5.93;;;7.60;99.90;;;;;;4909920;29;20262;-80
2023/01/31 05:31:11;;;;;;;21.60;4.70;;;7.60;99.90;;;;;;4909684;29;20567;-80
2023/01/31 05:33:39;;;;;;;24.37;5.37;;;7.60;99.90;;;;;;4909565;29;20203;-79
2023/01/31 05:36:08;;;;;;;24.30;4.73;;;7.60;99.90;;;;;;4910599;29;20868;-81
2023/01/31 05:38:35;;;;;;;24.73;5.87;;;7.70;99.90;;;;;;4909568;29;20337;-80
2023/01/31 05:41:01;;;;;;;23.37;5.70;;;7.60;99.90;;;;;;4909854;29;20308;-79
2023/01/31 05:43:28;;;;;;;26.17;5.67;;;7.50;99.90;;;;;;4909295;29;20214;-80
2023/01/31 05:45:55;;;;;;;19.73;5.90;;;7.60;99.90;;;;;;4910559;29;20206;-81
2023/01/31 05:48:22;;;;;;;20.73;5.83;;;7.60;99.90;;;;;;4909734;29;20198;-81
2023/01/31 05:50:50;;;;;;;20.00;4.57;;;7.60;99.90;;;;;;4910145;29;20203;-80
2023/01/31 05:53:21;;;;;;;21.80;5.23;;;7.60;99.90;;;;;;4909775;29;20620;-81
2023/01/31 05:55:48;;;;;;;19.73;5.40;;;7.60;99.90;;;;;;4908897;29;20250;-80
2023/01/31 05:58:15;;;;;;;21.80;5.13;;;7.60;99.90;;;;;;4909602;29;20956;-79
2023/01/31 06:00:42;;;;;;;25.47;5.00;;;7.60;99.90;;;;;;4909947;29;20876;-79
2023/01/31 06:03:10;;;;;;;21.93;4.83;;;7.70;99.90;;;;;;4910123;29;20558;-80
2023/01/31 06:05:39;;;;;;;18.83;4.53;;;7.70;99.90;;;;;;4910233;29;20213;-80
2023/01/31 06:08:05;;;;;;;14.70;4.17;;;7.70;99.90;;;;;;4908863;29;20706;-81
2023/01/31 06:10:34;;;;;;;18.97;4.80;;;7.70;99.90;;;;;;4909848;29;20604;-81
2023/01/31 06:13:01;;;;;;;25.13;4.87;;;7.70;99.90;;;;;;4910164;29;20210;-80
2023/01/31 06:15:28;;;;;;;18.80;5.00;;;7.70;99.90;;;;;;4908897;29;20215;-81
2023/01/31 06:17:55;;;;;;;22.97;4.73;;;7.60;99.90;;;;;;4909886;29;20215;-79
2023/01/31 06:20:22;;;;;;;16.37;4.43;;;7.60;99.90;;;;;;4909875;29;20303;-81
2023/01/31 06:22:49;;;;;;;24.13;5.53;;;7.50;99.90;;;;;;4909210;29;20226;-80
2023/01/31 06:25:15;;;;;;;18.90;4.37;;;7.50;99.90;;;;;;4909668;29;20215;-81
2023/01/31 06:27:44;;;;;;;19.67;4.50;;;7.50;99.90;;;;;;4909344;29;20579;-79
2023/01/31 06:30:12;;;;;;;22.40;6.13;;;7.50;99.90;;;;;;4908582;29;20285;-79
2023/01/31 06:32:39;;;;;;;17.23;4.73;;;7.40;99.90;;;;;;4909061;29;20219;-80
2023/01/31 06:35:06;;;;;;;20.23;4.97;;;7.40;99.90;;;;;;4909270;29;20607;-79
2023/01/31 06:37:33;;;;;;;24.30;5.93;;;7.40;99.90;;;;;;4908791;29;20210;-80
2023/01/31 06:40:00;;;;;;;32.03;7.23;;;7.40;99.90;;;;;;4909880;29;20221;-81
2023/01/31 06:42:27;;;;;;;21.87;6.83;;;7.40;99.90;;;;;;4909362;29;20223;-80
2023/01/31 06:44:55;;;;;;;27.07;5.53;;;7.40;99.90;;;;;;4909328;29;20206;-79
2023/01/31 06:47:22;;;;;;;23.83;5.77;;;7.40;99.90;;;;;;4909909;29;20217;-80
2023/01/31 06:49:49;;;;;;;22.83;5.17;;;7.30;99.90;;;;;;4908655;29;20221;-80
2023/01/31 06:52:16;;;;;;;26.03;6.00;;;7.30;99.90;;;;;;4909142;29;20544;-80
2023/01/31 06:54:42;;;;;;;19.13;4.93;;;7.30;99.90;;;;;;4908714;29;20297;-81
2023/01/31 06:57:09;;;;;;;25.87;6.80;;;7.40;99.90;;;;;;4908803;29;20238;-81
2023/01/31 06:59:36;;;;;;;22.90;4.87;;;7.30;99.90;;;;;;4909080;29;20214;-81
2023/01/31 07:02:04;;;;;;;25.27;5.80;;;7.30;99.90;;;;;;4909604;29;20322;-80
2023/01/31 07:04:31;;;;;;;20.37;5.13;;;7.30;99.90;;;;;;4908480;29;20217;-79
2023/01/31 07:06:58;;;;;;;23.97;4.07;;;7.20;99.90;;;;;;4909336;29;20207;-80
2023/01/31 07:09:25;;;;;;;20.80;4.80;;;7.30;99.90;;;;;;4909156;29;20217;-79
2023/01/31 07:11:52;;;;;;;20.00;4.23;;;7.30;99.90;;;;;;4908600;29;20229;-80
2023/01/31 07:14:19;;;;;;;19.17;5.00;;;7.20;99.90;;;;;;4908489;29;20207;-80
2023/01/31 07:16:46;;;;;;;21.20;6.03;;;7.30;99.90;;;;;;4908879;29;20345;-79
2023/01/31 07:19:15;;;;;;;23.10;4.40;;;7.20;99.90;;;;;;4908026;29;20225;-80
2023/01/31 07:21:43;;;;;;;20.57;4.93;;;7.20;99.90;;;;;;4908538;29;20297;-78
2023/01/31 07:24:10;;;;;;;17.50;4.20;;;7.20;99.90;;;;;;4909528;29;20210;-79
2023/01/31 07:26:38;;;;;;;28.43;5.97;;;7.20;99.90;;;;;;4914056;29;20216;-81
2023/01/31 07:29:05;;;;;;;25.67;5.53;;;7.20;99.90;;;;;;4929403;29;20202;-79
2023/01/31 07:31:32;;;;;;;18.50;4.50;;;7.10;99.90;;;;;;4939136;29;20219;-79
2023/01/31 07:33:59;;;;;;;25.47;7.37;;;7.10;99.90;;;;;;4934840;29;20212;-80
2023/01/31 07:36:28;;;;;;;16.20;4.80;;;7.10;99.90;;;;;;4933385;29;20209;-81
2023/01/31 07:38:56;;;;;;;24.87;6.00;;;7.10;99.90;;;;;;4935996;29;20845;-81
2023/01/31 07:41:23;;;;;;;21.77;4.07;;;7.10;99.90;;;;;;4933502;29;20238;-80
2023/01/31 07:43:51;;;;;;;26.57;5.33;;;7.10;99.90;;;;;;4909222;29;20793;-78
2023/01/31 07:46:18;;;;;;;26.63;6.17;;;7.10;99.90;;;;;;4924047;29;20210;-82
2023/01/31 07:48:45;;;;;;;21.47;5.47;;;7.10;99.90;;;;;;4928228;29;20292;-81
2023/01/31 07:51:12;;;;;;;21.90;5.40;;;7.10;99.90;;;;;;4928518;29;20206;-81
2023/01/31 07:53:41;;;;;;;35.17;6.10;;;7.10;99.90;;;;;;4927498;29;20269;-82
2023/01/31 07:56:11;;;;;;;26.53;6.30;;;7.10;99.90;;;;;;4927653;29;20310;-79
2023/01/31 07:58:38;;;;;;;20.37;5.93;;;7.10;99.90;;;;;;4928341;29;21001;-80
2023/01/31 08:03:52;;;;;;;25.83;5.23;;;7.20;99.90;;;;;;4952784;23;20844;-81
2023/01/31 08:06:19;;;;;;;32.23;7.70;;;7.20;99.90;;;;;;4933808;29;20209;-80
2023/01/31 08:08:48;;;;;;;30.43;7.70;;;7.20;99.90;;;;;;4934890;29;20216;-80
2023/01/31 08:11:14;;;;;;;23.47;6.03;;;7.30;99.90;;;;;;4945367;29;20209;-80
2023/01/31 08:13:42;;;;;;;24.53;6.00;;;7.40;99.90;;;;;;4926713;29;20203;-79
2023/01/31 08:16:10;;;;;;;29.77;6.93;;;7.40;99.90;;;;;;4934029;29;20214;-79
2023/01/31 08:18:38;;;;;;;27.60;6.40;;;7.40;99.90;;;;;;4926613;29;20781;-80
2023/01/31 08:21:05;;;;;;;30.40;7.20;;;7.50;99.90;;;;;;4926185;29;20212;-80
2023/01/31 08:23:33;;;;;;;28.73;6.70;;;7.50;99.90;;;;;;4925892;29;20224;-81
2023/01/31 08:26:02;;;;;;;30.27;6.90;;;7.50;99.90;;;;;;4927832;29;20238;-81
2023/01/31 08:28:29;;;;;;;32.57;6.87;;;7.50;99.90;;;;;;4928060;29;20249;-79
2023/01/31 08:30:56;;;;;;;30.80;6.53;;;7.60;99.90;;;;;;4946394;28;20287;-81
2023/01/31 08:33:24;;;;;;;32.30;8.37;;;7.60;99.90;;;;;;4944571;29;20208;-79
2023/01/31 08:35:51;;;;;;;31.30;8.50;;;7.60;99.90;;;;;;4944959;29;20296;-80
2023/01/31 08:38:18;;;;;;;33.70;7.37;;;7.70;99.90;;;;;;4941648;29;20207;-82
2023/01/31 08:40:45;;;;;;;36.57;7.73;;;7.70;99.90;;;;;;4941788;29;20504;-83
2023/01/31 08:43:13;;;;;;;24.23;7.70;;;7.70;99.90;;;;;;4943880;28;20370;-84
2023/01/31 08:45:40;;;;;;;34.37;8.13;;;7.70;99.90;;;;;;4942610;28;20209;-85
2023/01/31 08:48:08;;;;;;;29.30;6.43;;;7.70;99.90;;;;;;4946779;29;20527;-82
2023/01/31 08:50:34;;;;;;;25.53;5.70;;;7.80;99.90;;;;;;4944436;28;20212;-82
2023/01/31 08:53:03;;;;;;;35.03;6.63;;;7.80;99.90;;;;;;4949149;29;20212;-82
2023/01/31 08:55:32;;;;;;;32.63;6.43;;;7.80;99.90;;;;;;4947481;29;20201;-80
2023/01/31 08:58:00;;;;;;;28.57;6.60;;;7.90;99.90;;;;;;4946514;28;20773;-81
2023/01/31 09:00:29;;;;;;;38.17;7.60;;;7.90;99.90;;;;;;4946367;29;20201;-84
2023/01/31 09:02:58;;;;;;;41.43;7.47;;;7.90;99.90;;;;;;4943407;28;20237;-83
2023/01/31 09:05:26;;;;;;;26.53;6.83;;;7.90;99.90;;;;;;4929013;29;20206;-81
2023/01/31 09:07:53;;;;;;;27.80;8.07;;;7.90;99.90;;;;;;4930196;29;20202;-81
2023/01/31 09:10:21;;;;;;;33.33;9.77;;;8.00;99.90;;;;;;4929960;29;20214;-83
2023/01/31 09:12:49;;;;;;;25.87;7.87;;;8.00;99.90;;;;;;4933682;29;20212;-82
2023/01/31 09:15:16;;;;;;;34.90;7.67;;;8.00;99.90;;;;;;4948427;28;20217;-79
2023/01/31 09:17:44;;;;;;;35.93;8.20;;;8.10;99.90;;;;;;4946962;28;20209;-80
2023/01/31 09:20:11;;;;;;;33.30;7.63;;;8.20;99.90;;;;;;4929370;29;20288;-82
2023/01/31 09:22:38;;;;;;;35.83;7.33;;;8.20;99.90;;;;;;4928818;29;20214;-82
2023/01/31 09:25:06;;;;;;;31.83;7.40;;;8.20;99.90;;;;;;4929297;29;20233;-83
2023/01/31 09:27:35;;;;;;;25.17;6.97;;;8.30;99.90;;;;;;4928767;29;20585;-82
2023/01/31 09:30:02;;;;;;;31.37;8.73;;;8.40;99.90;;;;;;4929898;29;20308;-82
2023/01/31 09:32:30;;;;;;;32.63;6.83;;;8.40;99.90;;;;;;4928709;29;20226;-80
2023/01/31 09:34:59;;;;;;;34.00;8.07;;;8.40;99.90;;;;;;4929771;29;20368;-81
2023/01/31 09:37:26;;;;;;;26.67;7.03;;;8.50;99.90;;;;;;4929609;29;20225;-83
2023/01/31 09:39:53;;;;;;;31.10;9.00;;;8.50;99.90;;;;;;4929021;28;20212;-80
2023/01/31 09:42:24;;;;;;;28.57;7.30;;;8.50;99.90;;;;;;4931752;29;20213;-83
2023/01/31 09:45:00;;;;;;;24.40;6.30;;;8.60;99.90;;;;;;4933162;29;20490;-81
2023/01/31 09:47:31;;;;;;;25.97;7.17;;;8.60;99.90;;;;;;4932341;29;20244;-82
2023/01/31 09:50:04;;;;;;;26.27;6.73;;;8.60;99.90;;;;;;4951136;29;20327;-83
2023/01/31 09:52:32;;;;;;;25.80;7.87;;;8.50;99.90;;;;;;4950268;29;20201;-83
2023/01/31 09:54:59;;;;;;;29.63;7.17;;;8.60;99.90;;;;;;4943746;29;20250;-81
2023/01/31 09:57:35;;;;;;;31.33;8.47;;;8.50;99.90;;;;;;4932459;29;20205;-83
2023/01/31 10:00:17;;;;;;;28.93;7.07;;;8.60;99.90;;;;;;4931437;29;20213;-82
2023/01/31 10:03:19;;;;;;;24.90;6.13;;;8.60;99.90;;;;;;4931880;29;20276;-82
2023/01/31 10:05:52;;;;;;;20.07;6.43;;;8.70;99.90;;;;;;4924492;29;20225;-84
2023/01/31 10:08:38;;;;;;;19.47;5.97;;;8.70;99.90;;;;;;4931958;29;20939;-82
2023/01/31 10:11:10;;;;;;;21.73;5.53;;;8.80;99.90;;;;;;4931682;29;20213;-82
2023/01/31 10:13:41;;;;;;;25.63;5.73;;;8.80;99.90;;;;;;4940439;29;20202;-83
2023/01/31 10:16:17;;;;;;;20.17;6.17;;;8.90;99.90;;;;;;4949620;29;20207;-81
2023/01/31 10:18:48;;;;;;;18.80;5.83;;;9.00;99.90;;;;;;4949542;28;20320;-82
2023/01/31 10:21:19;;;;;;;19.87;4.93;;;9.00;99.90;;;;;;4945561;29;20859;-81
2023/01/31 10:23:51;;;;;;;21.73;5.67;;;9.00;99.90;;;;;;4931360;29;20528;-82
2023/01/31 10:26:22;;;;;;;17.23;5.20;;;9.00;99.90;;;;;;4932515;29;20856;-83
2023/01/31 10:28:55;;;;;;;16.80;5.37;;;9.00;99.90;;;;;;4930861;29;20220;-82
2023/01/31 10:31:30;;;;;;;17.57;5.77;;;9.10;99.90;;;;;;4938727;29;20869;-82
2023/01/31 10:34:00;;;;;;;21.07;4.97;;;9.10;99.90;;;;;;4950518;29;20196;-82
2023/01/31 10:36:33;;;;;;;26.13;4.73;;;9.10;99.90;;;;;;4950732;29;20292;-83
2023/01/31 10:39:05;;;;;;;18.30;4.50;;;9.10;99.90;;;;;;4951926;28;20401;-84
2023/01/31 10:41:47;;;;;;;17.80;3.87;;;9.10;99.90;;;;;;4949424;29;20210;-83
2023/01/31 10:44:23;;;;;;;22.97;5.30;;;9.10;99.90;;;;;;4951150;29;20229;-80
2023/01/31 10:46:52;;;;;;;20.70;5.07;;;9.10;99.90;;;;;;4949097;29;20794;-81
2023/01/31 10:49:23;;;;;;;26.57;4.47;;;9.10;99.90;;;;;;4949093;28;20286;-83
2023/01/31 10:52:07;;;;;;;25.50;4.80;;;9.10;99.90;;;;;;4950164;29;20201;-81
2023/01/31 10:54:58;;;;;;;19.17;4.27;;;9.10;99.90;;;;;;4949165;29;20883;-81
2023/01/31 10:57:26;;;;;;;29.67;5.87;;;9.10;99.90;;;;;;4949919;29;20668;-81
2023/01/31 10:59:54;;;;;;;18.17;4.57;;;9.10;99.90;;;;;;4950362;29;20201;-83
2023/01/31 11:02:24;;;;;;;22.23;5.33;;;9.10;99.90;;;;;;4933826;29;20241;-83
2023/01/31 11:04:54;;;;;;;24.60;4.93;;;9.10;99.90;;;;;;4929374;29;20624;-82
2023/01/31 11:07:23;;;;;;;27.77;5.53;;;9.10;99.90;;;;;;4930940;29;20210;-81
2023/01/31 11:09:53;;;;;;;19.23;5.03;;;9.10;99.90;;;;;;4949284;29;20232;-83
2023/01/31 11:12:21;;;;;;;24.03;4.97;;;9.10;99.90;;;;;;4949950;29;20209;-81
2023/01/31 11:15:05;;;;;;;19.40;4.80;;;9.10;99.90;;;;;;4949844;29;20209;-84
2023/01/31 11:17:36;;;;;;;23.33;5.03;;;9.10;99.90;;;;;;4929389;29;20214;-80
2023/01/31 11:20:05;;;;;;;18.77;4.60;;;9.20;99.90;;;;;;4929492;28;20279;-83
2023/01/31 11:22:37;;;;;;;25.80;4.90;;;9.20;99.90;;;;;;4947499;28;20209;-81
2023/01/31 11:25:06;;;;;;;22.20;5.17;;;9.30;99.90;;;;;;4945541;28;20240;-81
2023/01/31 11:27:37;;;;;;;23.80;6.07;;;9.30;99.90;;;;;;4946474;29;20511;-82
2023/01/31 11:30:06;;;;;;;24.60;5.00;;;9.30;99.90;;;;;;4951515;28;20674;-84
2023/01/31 11:32:37;;;;;;;19.83;5.67;;;9.30;99.90;;;;;;4941851;28;20223;-80
2023/01/31 11:35:05;;;;;;;27.53;5.50;;;9.30;99.90;;;;;;4949420;28;20381;-82
2023/01/31 11:37:34;;;;;;;21.57;4.80;;;9.30;99.90;;;;;;4932318;28;20201;-82
2023/01/31 11:40:03;;;;;;;24.07;5.63;;;9.30;99.90;;;;;;4932945;28;20305;-84
2023/01/31 11:42:30;;;;;;;22.73;5.87;;;9.40;99.90;;;;;;4968872;28;20232;-81
2023/01/31 11:44:59;;;;;;;16.67;4.87;;;9.40;99.90;;;;;;4953585;28;20531;-83
2023/01/31 11:47:33;;;;;;;26.57;4.77;;;9.40;99.90;;;;;;4949459;29;20308;-82
2023/01/31 11:50:02;;;;;;;17.63;4.40;;;9.40;99.90;;;;;;4949667;29;20856;-86
2023/01/31 11:52:31;;;;;;;19.67;4.83;;;9.50;99.90;;;;;;4949066;29;20209;-82
2023/01/31 11:55:02;;;;;;;20.93;4.90;;;9.50;99.90;;;;;;4937423;29;20221;-81
2023/01/31 11:57:33;;;;;;;20.73;6.50;;;9.50;99.90;;;;;;4937821;29;20520;-83
2023/01/31 12:00:02;;;;;;;13.43;4.87;;;9.50;99.90;;;;;;4939375;29;20194;-84
2023/01/31 12:02:37;;;;;;;23.80;6.13;;;9.60;99.90;;;;;;4928887;29;20285;-82
2023/01/31 12:05:10;;;;;;;23.47;5.70;;;9.60;99.90;;;;;;4936112;28;20528;-83
2023/01/31 12:07:48;;;;;;;26.77;6.07;;;9.60;99.90;;;;;;4947552;29;20205;-82
2023/01/31 12:10:31;;;;;;;19.03;5.50;;;9.70;99.90;;;;;;4948526;28;20641;-80
2023/01/31 12:13:00;;;;;;;20.57;5.80;;;9.70;99.90;;;;;;4947079;28;20209;-82
2023/01/31 12:15:30;;;;;;;19.73;5.13;;;9.70;99.90;;;;;;4948386;28;20477;-82
2023/01/31 12:18:00;;;;;;;19.17;4.93;;;9.70;99.90;;;;;;4935335;28;20291;-79
2023/01/31 12:20:37;;;;;;;23.90;5.43;;;9.70;99.90;;;;;;4945810;28;20220;-80
2023/01/31 12:23:15;;;;;;;22.33;4.93;;;9.70;99.90;;;;;;4967327;28;20206;-81
2023/01/31 12:25:53;;;;;;;17.63;5.03;;;9.70;99.90;;;;;;4960337;28;20204;-83
2023/01/31 12:28:33;;;;;;;19.43;4.80;;;9.70;99.90;;;;;;4928391;29;20194;-81
2023/01/31 12:31:10;;;;;;;20.50;6.13;;;9.80;99.90;;;;;;4937663;28;20216;-82
2023/01/31 12:33:54;;;;;;;19.40;5.73;;;9.80;99.90;;;;;;4933058;29;20201;-82
2023/01/31 12:36:40;;;;;;;22.23;6.40;;;9.80;99.90;;;;;;4937756;28;20209;-83
2023/01/31 12:39:22;;;;;;;23.23;6.47;;;9.90;99.90;;;;;;4945502;28;20767;-81
2023/01/31 12:42:03;;;;;;;19.63;4.67;;;9.90;99.90;;;;;;4945384;29;20279;-83
2023/01/31 12:44:47;;;;;;;24.03;6.50;;;9.80;99.90;;;;;;4948277;28;20628;-80
2023/01/31 12:47:43;;;;;;;22.50;5.37;;;9.80;99.90;;;;;;4949284;28;20320;-82
2023/01/31 12:50:32;;;;;;;22.47;5.57;;;9.80;99.90;;;;;;4949808;28;20204;-81
2023/01/31 12:53:21;;;;;;;29.03;7.80;;;9.80;99.90;;;;;;4951471;28;20747;-82
2023/01/31 12:56:01;;;;;;;23.00;5.80;;;9.90;99.90;;;;;;4939183;28;20201;-84
2023/01/31 12:58:49;;;;;;;21.10;5.50;;;9.90;99.90;;;;;;4945443;29;20206;-84
2023/01/31 13:01:20;;;;;;;23.70;5.33;;;9.90;99.90;;;;;;4947188;28;20208;-81
2023/01/31 13:04:04;;;;;;;20.50;5.17;;;9.80;99.90;;;;;;4946816;29;20622;-78
2023/01/31 13:06:34;;;;;;;22.03;5.23;;;9.80;99.90;;;;;;4943736;29;20511;-82
2023/01/31 13:09:07;;;;;;;13.53;4.93;;;9.80;99.90;;;;;;4928930;29;20285;-83
2023/01/31 13:11:39;;;;;;;15.70;5.13;;;9.80;99.90;;;;;;4929463;29;20202;-84
2023/01/31 13:14:13;;;;;;;22.63;4.67;;;9.90;99.90;;;;;;4944232;29;20296;-81